Fairbanks Airport (FAI)

 

Airport Diagram
Current Weather/Forecast (MVFR Conditions)
METAR PAFA 220753Z 06007KT 9SM -SN FEW010 OVC021 M03/M07 A3068 RMK AO2 SLP399 P0000 T10331067
TAF PAFA 220524Z 2206/2312 VRB04KT 6SM -FZDZSN BR SCT010 OVC020 FM220800 VRB04KT P6SM SCT010 OVC020 FM221500 VRB04KT P6SM SCT025 SCT250

All Charts

Inbound Traffic (Arrivals)

No inbound traffic.


Outbound Traffic (Departures)

No outbound traffic.